sensor_id;sensor_type;location;lat;lon;timestamp;P1;durP1;ratioP1;P2;durP2;ratioP2
59756;SDS011;45631;51.962;5.974;2023-07-28T00:00:14;13.60;;;11.88;;
59756;SDS011;45631;51.962;5.974;2023-07-28T00:02:42;13.55;;;11.63;;
59756;SDS011;45631;51.962;5.974;2023-07-28T00:05:11;13.77;;;11.45;;
59756;SDS011;45631;51.962;5.974;2023-07-28T00:07:41;14.57;;;10.95;;
59756;SDS011;45631;51.962;5.974;2023-07-28T00:10:10;13.38;;;11.90;;
59756;SDS011;45631;51.962;5.974;2023-07-28T00:12:39;13.60;;;11.48;;
59756;SDS011;45631;51.962;5.974;2023-07-28T00:15:07;13.27;;;11.05;;
59756;SDS011;45631;51.962;5.974;2023-07-28T00:17:36;14.15;;;11.27;;
59756;SDS011;45631;51.962;5.974;2023-07-28T00:20:05;13.75;;;11.48;;
59756;SDS011;45631;51.962;5.974;2023-07-28T00:22:34;14.82;;;11.13;;
59756;SDS011;45631;51.962;5.974;2023-07-28T00:25:05;14.38;;;11.43;;
59756;SDS011;45631;51.962;5.974;2023-07-28T00:27:33;13.55;;;10.25;;
59756;SDS011;45631;51.962;5.974;2023-07-28T00:30:02;12.82;;;10.88;;
59756;SDS011;45631;51.962;5.974;2023-07-28T00:32:31;11.70;;;10.23;;
59756;SDS011;45631;51.962;5.974;2023-07-28T00:34:59;13.20;;;10.65;;
59756;SDS011;45631;51.962;5.974;2023-07-28T00:37:28;11.05;;;9.85;;
59756;SDS011;45631;51.962;5.974;2023-07-28T00:39:56;12.15;;;10.85;;
59756;SDS011;45631;51.962;5.974;2023-07-28T00:42:26;12.18;;;10.48;;
59756;SDS011;45631;51.962;5.974;2023-07-28T00:44:54;13.48;;;11.18;;
59756;SDS011;45631;51.962;5.974;2023-07-28T00:47:23;12.20;;;10.90;;
59756;SDS011;45631;51.962;5.974;2023-07-28T00:49:52;13.75;;;10.52;;
59756;SDS011;45631;51.962;5.974;2023-07-28T00:52:21;13.50;;;10.52;;
59756;SDS011;45631;51.962;5.974;2023-07-28T00:54:49;13.65;;;10.63;;
59756;SDS011;45631;51.962;5.974;2023-07-28T00:57:17;13.20;;;11.55;;
59756;SDS011;45631;51.962;5.974;2023-07-28T00:59:47;15.52;;;11.68;;
59756;SDS011;45631;51.962;5.974;2023-07-28T01:02:17;15.30;;;11.38;;
59756;SDS011;45631;51.962;5.974;2023-07-28T01:04:46;15.13;;;11.30;;
59756;SDS011;45631;51.962;5.974;2023-07-28T01:07:17;12.18;;;10.50;;
59756;SDS011;45631;51.962;5.974;2023-07-28T01:09:55;15.40;;;11.65;;
59756;SDS011;45631;51.962;5.974;2023-07-28T01:12:36;14.45;;;11.55;;
59756;SDS011;45631;51.962;5.974;2023-07-28T01:15:07;13.88;;;11.95;;
59756;SDS011;45631;51.962;5.974;2023-07-28T01:17:36;13.18;;;11.73;;
59756;SDS011;45631;51.962;5.974;2023-07-28T01:20:05;14.93;;;11.00;;
59756;SDS011;45631;51.962;5.974;2023-07-28T01:22:48;13.73;;;11.82;;
59756;SDS011;45631;51.962;5.974;2023-07-28T01:25:36;15.02;;;12.23;;
59756;SDS011;45631;51.962;5.974;2023-07-28T01:28:12;13.15;;;11.32;;
59756;SDS011;45631;51.962;5.974;2023-07-28T01:30:42;15.23;;;11.80;;
59756;SDS011;45631;51.962;5.974;2023-07-28T01:33:10;14.57;;;11.75;;
59756;SDS011;45631;51.962;5.974;2023-07-28T01:35:39;14.85;;;12.13;;
59756;SDS011;45631;51.962;5.974;2023-07-28T01:38:07;15.60;;;12.10;;
59756;SDS011;45631;51.962;5.974;2023-07-28T01:40:36;15.02;;;12.43;;
59756;SDS011;45631;51.962;5.974;2023-07-28T01:43:04;16.15;;;12.38;;
59756;SDS011;45631;51.962;5.974;2023-07-28T01:45:34;14.98;;;12.55;;
59756;SDS011;45631;51.962;5.974;2023-07-28T01:48:02;16.33;;;12.13;;
59756;SDS011;45631;51.962;5.974;2023-07-28T01:50:31;13.25;;;11.85;;
59756;SDS011;45631;51.962;5.974;2023-07-28T01:53:00;15.32;;;12.13;;
59756;SDS011;45631;51.962;5.974;2023-07-28T01:55:28;15.80;;;12.20;;
59756;SDS011;45631;51.962;5.974;2023-07-28T01:57:57;18.42;;;12.55;;
59756;SDS011;45631;51.962;5.974;2023-07-28T02:00:27;16.35;;;13.05;;
59756;SDS011;45631;51.962;5.974;2023-07-28T02:02:57;15.55;;;12.27;;
59756;SDS011;45631;51.962;5.974;2023-07-28T02:05:28;16.38;;;12.45;;
59756;SDS011;45631;51.962;5.974;2023-07-28T02:07:57;16.42;;;12.07;;
59756;SDS011;45631;51.962;5.974;2023-07-28T02:10:26;15.65;;;11.63;;
59756;SDS011;45631;51.962;5.974;2023-07-28T02:12:54;14.55;;;11.77;;
59756;SDS011;45631;51.962;5.974;2023-07-28T02:15:23;15.88;;;12.25;;
59756;SDS011;45631;51.962;5.974;2023-07-28T02:17:51;18.02;;;12.70;;
59756;SDS011;45631;51.962;5.974;2023-07-28T02:20:21;18.30;;;12.68;;
59756;SDS011;45631;51.962;5.974;2023-07-28T02:22:50;17.23;;;12.77;;
59756;SDS011;45631;51.962;5.974;2023-07-28T02:25:18;19.08;;;13.20;;
59756;SDS011;45631;51.962;5.974;2023-07-28T02:27:46;17.98;;;12.70;;
59756;SDS011;45631;51.962;5.974;2023-07-28T02:30:15;19.20;;;13.57;;
59756;SDS011;45631;51.962;5.974;2023-07-28T02:32:43;19.90;;;14.27;;
59756;SDS011;45631;51.962;5.974;2023-07-28T02:35:12;20.50;;;14.10;;
59756;SDS011;45631;51.962;5.974;2023-07-28T02:37:42;21.55;;;14.57;;
59756;SDS011;45631;51.962;5.974;2023-07-28T02:40:10;24.45;;;14.73;;
59756;SDS011;45631;51.962;5.974;2023-07-28T02:42:39;21.35;;;15.38;;
59756;SDS011;45631;51.962;5.974;2023-07-28T02:45:08;20.60;;;14.68;;
59756;SDS011;45631;51.962;5.974;2023-07-28T02:47:37;23.42;;;15.82;;
59756;SDS011;45631;51.962;5.974;2023-07-28T02:50:06;24.42;;;16.25;;
59756;SDS011;45631;51.962;5.974;2023-07-28T02:52:34;23.90;;;16.13;;
59756;SDS011;45631;51.962;5.974;2023-07-28T02:55:04;24.35;;;15.88;;
59756;SDS011;45631;51.962;5.974;2023-07-28T02:57:33;23.65;;;16.13;;
59756;SDS011;45631;51.962;5.974;2023-07-28T03:00:05;21.52;;;14.65;;
59756;SDS011;45631;51.962;5.974;2023-07-28T03:02:37;21.73;;;14.45;;
59756;SDS011;45631;51.962;5.974;2023-07-28T03:05:06;21.63;;;15.00;;
59756;SDS011;45631;51.962;5.974;2023-07-28T03:07:35;22.00;;;14.48;;
59756;SDS011;45631;51.962;5.974;2023-07-28T03:10:05;21.58;;;14.32;;
59756;SDS011;45631;51.962;5.974;2023-07-28T03:12:34;22.77;;;14.50;;
59756;SDS011;45631;51.962;5.974;2023-07-28T03:15:03;21.30;;;14.18;;
59756;SDS011;45631;51.962;5.974;2023-07-28T03:17:32;22.73;;;14.55;;
59756;SDS011;45631;51.962;5.974;2023-07-28T03:20:00;22.10;;;15.50;;
59756;SDS011;45631;51.962;5.974;2023-07-28T03:22:29;23.75;;;15.77;;
59756;SDS011;45631;51.962;5.974;2023-07-28T03:24:57;23.30;;;14.82;;
59756;SDS011;45631;51.962;5.974;2023-07-28T03:27:27;22.60;;;13.77;;
59756;SDS011;45631;51.962;5.974;2023-07-28T03:29:55;24.63;;;15.80;;
59756;SDS011;45631;51.962;5.974;2023-07-28T03:32:24;23.75;;;14.80;;
59756;SDS011;45631;51.962;5.974;2023-07-28T03:34:52;23.23;;;15.35;;
59756;SDS011;45631;51.962;5.974;2023-07-28T03:37:20;24.58;;;15.10;;
59756;SDS011;45631;51.962;5.974;2023-07-28T03:39:49;25.02;;;14.90;;
59756;SDS011;45631;51.962;5.974;2023-07-28T03:42:17;26.27;;;16.42;;
59756;SDS011;45631;51.962;5.974;2023-07-28T03:44:47;27.92;;;16.52;;
59756;SDS011;45631;51.962;5.974;2023-07-28T03:47:15;26.45;;;16.38;;
59756;SDS011;45631;51.962;5.974;2023-07-28T03:49:44;26.25;;;17.00;;
59756;SDS011;45631;51.962;5.974;2023-07-28T03:52:12;27.33;;;17.15;;
59756;SDS011;45631;51.962;5.974;2023-07-28T03:54:41;35.05;;;16.58;;
59756;SDS011;45631;51.962;5.974;2023-07-28T03:57:09;28.30;;;18.17;;
59756;SDS011;45631;51.962;5.974;2023-07-28T03:59:38;28.95;;;17.58;;
59756;SDS011;45631;51.962;5.974;2023-07-28T04:02:07;28.70;;;17.73;;
59756;SDS011;45631;51.962;5.974;2023-07-28T04:04:36;29.90;;;17.35;;
59756;SDS011;45631;51.962;5.974;2023-07-28T04:07:05;32.55;;;17.23;;
59756;SDS011;45631;51.962;5.974;2023-07-28T04:09:34;30.83;;;18.38;;
59756;SDS011;45631;51.962;5.974;2023-07-28T04:12:02;32.30;;;18.20;;
59756;SDS011;45631;51.962;5.974;2023-07-28T04:14:31;30.23;;;17.95;;
59756;SDS011;45631;51.962;5.974;2023-07-28T04:16:59;31.75;;;17.70;;
59756;SDS011;45631;51.962;5.974;2023-07-28T04:19:29;30.65;;;19.13;;
59756;SDS011;45631;51.962;5.974;2023-07-28T04:21:58;29.23;;;17.40;;
59756;SDS011;45631;51.962;5.974;2023-07-28T04:24:28;31.80;;;17.95;;
59756;SDS011;45631;51.962;5.974;2023-07-28T04:26:57;34.13;;;17.75;;
59756;SDS011;45631;51.962;5.974;2023-07-28T04:29:25;32.40;;;18.77;;
59756;SDS011;45631;51.962;5.974;2023-07-28T04:31:54;30.77;;;18.50;;
59756;SDS011;45631;51.962;5.974;2023-07-28T04:34:23;33.10;;;17.95;;
59756;SDS011;45631;51.962;5.974;2023-07-28T04:36:52;32.42;;;18.08;;
59756;SDS011;45631;51.962;5.974;2023-07-28T04:39:21;30.85;;;18.98;;
59756;SDS011;45631;51.962;5.974;2023-07-28T04:41:49;29.58;;;17.27;;
59756;SDS011;45631;51.962;5.974;2023-07-28T04:44:18;33.75;;;19.42;;
59756;SDS011;45631;51.962;5.974;2023-07-28T04:46:47;28.27;;;17.08;;
59756;SDS011;45631;51.962;5.974;2023-07-28T04:49:15;38.03;;;18.17;;
59756;SDS011;45631;51.962;5.974;2023-07-28T04:51:43;31.42;;;18.08;;
59756;SDS011;45631;51.962;5.974;2023-07-28T04:54:13;31.25;;;17.92;;
59756;SDS011;45631;51.962;5.974;2023-07-28T04:56:42;33.10;;;17.92;;
59756;SDS011;45631;51.962;5.974;2023-07-28T04:59:10;32.88;;;19.20;;
59756;SDS011;45631;51.962;5.974;2023-07-28T05:01:38;36.45;;;19.52;;
59756;SDS011;45631;51.962;5.974;2023-07-28T05:04:07;31.63;;;18.17;;
59756;SDS011;45631;51.962;5.974;2023-07-28T05:06:35;35.60;;;18.35;;
59756;SDS011;45631;51.962;5.974;2023-07-28T05:09:03;35.38;;;19.55;;
59756;SDS011;45631;51.962;5.974;2023-07-28T05:11:33;33.90;;;18.77;;
59756;SDS011;45631;51.962;5.974;2023-07-28T05:14:02;35.25;;;20.42;;
59756;SDS011;45631;51.962;5.974;2023-07-28T05:16:32;35.00;;;18.92;;
59756;SDS011;45631;51.962;5.974;2023-07-28T05:19:01;31.85;;;18.75;;
59756;SDS011;45631;51.962;5.974;2023-07-28T05:21:29;34.20;;;19.35;;
59756;SDS011;45631;51.962;5.974;2023-07-28T05:23:58;36.55;;;19.50;;
59756;SDS011;45631;51.962;5.974;2023-07-28T05:26:27;30.95;;;17.90;;
59756;SDS011;45631;51.962;5.974;2023-07-28T05:28:57;32.40;;;17.77;;
59756;SDS011;45631;51.962;5.974;2023-07-28T05:31:25;36.90;;;19.15;;
59756;SDS011;45631;51.962;5.974;2023-07-28T05:33:53;34.08;;;18.55;;
59756;SDS011;45631;51.962;5.974;2023-07-28T05:36:22;38.38;;;19.73;;
59756;SDS011;45631;51.962;5.974;2023-07-28T05:38:51;36.10;;;19.73;;
59756;SDS011;45631;51.962;5.974;2023-07-28T05:41:20;36.97;;;20.33;;
59756;SDS011;45631;51.962;5.974;2023-07-28T05:43:48;37.03;;;20.90;;
59756;SDS011;45631;51.962;5.974;2023-07-28T05:46:19;39.92;;;21.90;;
59756;SDS011;45631;51.962;5.974;2023-07-28T05:48:47;37.58;;;21.02;;
59756;SDS011;45631;51.962;5.974;2023-07-28T05:51:15;41.40;;;20.63;;
59756;SDS011;45631;51.962;5.974;2023-07-28T05:53:44;36.40;;;20.77;;
59756;SDS011;45631;51.962;5.974;2023-07-28T05:56:12;35.85;;;20.23;;
59756;SDS011;45631;51.962;5.974;2023-07-28T05:58:41;36.83;;;20.40;;
59756;SDS011;45631;51.962;5.974;2023-07-28T06:01:09;32.80;;;19.92;;
59756;SDS011;45631;51.962;5.974;2023-07-28T06:03:39;34.42;;;20.80;;
59756;SDS011;45631;51.962;5.974;2023-07-28T06:06:11;34.33;;;20.77;;
59756;SDS011;45631;51.962;5.974;2023-07-28T06:08:40;31.75;;;18.92;;
59756;SDS011;45631;51.962;5.974;2023-07-28T06:11:08;30.15;;;19.20;;
59756;SDS011;45631;51.962;5.974;2023-07-28T06:13:36;33.70;;;19.00;;
59756;SDS011;45631;51.962;5.974;2023-07-28T06:16:05;29.60;;;19.77;;
59756;SDS011;45631;51.962;5.974;2023-07-28T06:18:33;29.17;;;18.75;;
59756;SDS011;45631;51.962;5.974;2023-07-28T06:21:03;31.25;;;18.90;;
59756;SDS011;45631;51.962;5.974;2023-07-28T06:23:32;30.15;;;19.15;;
59756;SDS011;45631;51.962;5.974;2023-07-28T06:26:00;27.65;;;18.02;;
59756;SDS011;45631;51.962;5.974;2023-07-28T06:28:29;30.85;;;18.98;;
59756;SDS011;45631;51.962;5.974;2023-07-28T06:30:57;28.23;;;17.73;;
59756;SDS011;45631;51.962;5.974;2023-07-28T06:33:28;28.95;;;18.63;;
59756;SDS011;45631;51.962;5.974;2023-07-28T06:35:56;32.53;;;19.20;;
59756;SDS011;45631;51.962;5.974;2023-07-28T06:38:26;32.00;;;17.85;;
59756;SDS011;45631;51.962;5.974;2023-07-28T06:40:54;28.38;;;17.55;;
59756;SDS011;45631;51.962;5.974;2023-07-28T06:43:23;27.08;;;17.85;;
59756;SDS011;45631;51.962;5.974;2023-07-28T06:45:52;26.83;;;16.95;;
59756;SDS011;45631;51.962;5.974;2023-07-28T06:48:20;37.25;;;17.77;;
59756;SDS011;45631;51.962;5.974;2023-07-28T06:50:49;26.15;;;17.38;;
59756;SDS011;45631;51.962;5.974;2023-07-28T06:53:17;28.48;;;18.10;;
59756;SDS011;45631;51.962;5.974;2023-07-28T06:55:48;28.63;;;18.30;;
59756;SDS011;45631;51.962;5.974;2023-07-28T06:58:16;30.95;;;20.08;;
59756;SDS011;45631;51.962;5.974;2023-07-28T07:00:44;32.25;;;19.30;;
59756;SDS011;45631;51.962;5.974;2023-07-28T07:03:13;29.42;;;19.33;;
59756;SDS011;45631;51.962;5.974;2023-07-28T07:05:41;28.40;;;19.30;;
59756;SDS011;45631;51.962;5.974;2023-07-28T07:08:10;35.28;;;19.73;;
59756;SDS011;45631;51.962;5.974;2023-07-28T07:10:39;30.80;;;19.38;;
59756;SDS011;45631;51.962;5.974;2023-07-28T07:13:08;30.23;;;19.88;;
59756;SDS011;45631;51.962;5.974;2023-07-28T07:15:38;33.75;;;20.58;;
59756;SDS011;45631;51.962;5.974;2023-07-28T07:18:06;33.25;;;20.73;;
59756;SDS011;45631;51.962;5.974;2023-07-28T07:20:35;34.85;;;19.48;;
59756;SDS011;45631;51.962;5.974;2023-07-28T07:23:04;29.98;;;19.38;;
59756;SDS011;45631;51.962;5.974;2023-07-28T07:25:34;29.70;;;18.60;;
59756;SDS011;45631;51.962;5.974;2023-07-28T07:28:03;30.10;;;19.75;;
59756;SDS011;45631;51.962;5.974;2023-07-28T07:30:33;34.45;;;19.50;;
59756;SDS011;45631;51.962;5.974;2023-07-28T07:33:02;31.05;;;18.77;;
59756;SDS011;45631;51.962;5.974;2023-07-28T07:35:35;27.98;;;18.15;;
59756;SDS011;45631;51.962;5.974;2023-07-28T07:38:04;29.42;;;17.73;;
59756;SDS011;45631;51.962;5.974;2023-07-28T07:40:35;26.85;;;16.88;;
59756;SDS011;45631;51.962;5.974;2023-07-28T07:43:04;24.83;;;16.35;;
59756;SDS011;45631;51.962;5.974;2023-07-28T07:45:34;25.67;;;15.93;;
59756;SDS011;45631;51.962;5.974;2023-07-28T07:48:03;21.98;;;15.75;;
59756;SDS011;45631;51.962;5.974;2023-07-28T07:50:31;25.50;;;16.13;;
59756;SDS011;45631;51.962;5.974;2023-07-28T07:53:00;23.33;;;16.10;;
59756;SDS011;45631;51.962;5.974;2023-07-28T07:55:28;21.90;;;15.02;;
59756;SDS011;45631;51.962;5.974;2023-07-28T07:57:58;20.67;;;14.23;;
59756;SDS011;45631;51.962;5.974;2023-07-28T08:00:26;23.50;;;14.68;;
59756;SDS011;45631;51.962;5.974;2023-07-28T08:02:56;23.88;;;15.00;;
59756;SDS011;45631;51.962;5.974;2023-07-28T08:05:25;20.83;;;14.38;;
59756;SDS011;45631;51.962;5.974;2023-07-28T08:07:54;26.90;;;13.98;;
59756;SDS011;45631;51.962;5.974;2023-07-28T08:10:23;21.92;;;14.02;;
59756;SDS011;45631;51.962;5.974;2023-07-28T08:12:51;18.67;;;13.10;;
59756;SDS011;45631;51.962;5.974;2023-07-28T08:15:21;20.17;;;12.80;;
59756;SDS011;45631;51.962;5.974;2023-07-28T08:17:49;18.65;;;11.98;;
59756;SDS011;45631;51.962;5.974;2023-07-28T08:20:20;19.10;;;12.20;;
59756;SDS011;45631;51.962;5.974;2023-07-28T08:22:48;19.45;;;12.30;;
59756;SDS011;45631;51.962;5.974;2023-07-28T08:25:17;17.52;;;12.18;;
59756;SDS011;45631;51.962;5.974;2023-07-28T08:27:45;18.80;;;12.18;;
59756;SDS011;45631;51.962;5.974;2023-07-28T08:30:14;20.10;;;11.98;;
59756;SDS011;45631;51.962;5.974;2023-07-28T08:32:42;22.10;;;11.70;;
59756;SDS011;45631;51.962;5.974;2023-07-28T08:35:11;18.75;;;12.50;;
59756;SDS011;45631;51.962;5.974;2023-07-28T08:37:41;18.73;;;12.77;;
59756;SDS011;45631;51.962;5.974;2023-07-28T08:40:10;15.90;;;11.65;;
59756;SDS011;45631;51.962;5.974;2023-07-28T08:42:40;18.38;;;12.18;;
59756;SDS011;45631;51.962;5.974;2023-07-28T08:45:09;16.73;;;12.38;;
59756;SDS011;45631;51.962;5.974;2023-07-28T08:47:37;18.48;;;12.93;;
59756;SDS011;45631;51.962;5.974;2023-07-28T08:50:06;19.75;;;12.75;;
59756;SDS011;45631;51.962;5.974;2023-07-28T08:52:35;17.48;;;12.63;;
59756;SDS011;45631;51.962;5.974;2023-07-28T08:55:05;20.23;;;13.10;;
59756;SDS011;45631;51.962;5.974;2023-07-28T08:57:34;19.02;;;13.32;;
59756;SDS011;45631;51.962;5.974;2023-07-28T09:00:09;18.35;;;12.43;;
59756;SDS011;45631;51.962;5.974;2023-07-28T09:02:41;17.58;;;11.70;;
59756;SDS011;45631;51.962;5.974;2023-07-28T09:05:16;19.90;;;13.38;;
59756;SDS011;45631;51.962;5.974;2023-07-28T09:07:46;18.83;;;12.95;;
59756;SDS011;45631;51.962;5.974;2023-07-28T09:10:16;19.05;;;13.35;;
59756;SDS011;45631;51.962;5.974;2023-07-28T09:12:45;18.73;;;13.00;;
59756;SDS011;45631;51.962;5.974;2023-07-28T09:15:15;18.17;;;12.77;;
59756;SDS011;45631;51.962;5.974;2023-07-28T09:17:45;21.15;;;12.65;;
59756;SDS011;45631;51.962;5.974;2023-07-28T09:20:14;18.27;;;13.70;;
59756;SDS011;45631;51.962;5.974;2023-07-28T09:22:43;18.77;;;12.57;;
59756;SDS011;45631;51.962;5.974;2023-07-28T09:25:13;16.70;;;12.43;;
59756;SDS011;45631;51.962;5.974;2023-07-28T09:27:50;18.23;;;11.77;;
59756;SDS011;45631;51.962;5.974;2023-07-28T09:30:19;15.93;;;11.48;;
59756;SDS011;45631;51.962;5.974;2023-07-28T09:32:49;14.43;;;10.35;;
59756;SDS011;45631;51.962;5.974;2023-07-28T09:35:19;17.52;;;10.45;;
59756;SDS011;45631;51.962;5.974;2023-07-28T09:37:50;15.23;;;10.93;;
59756;SDS011;45631;51.962;5.974;2023-07-28T09:42:51;15.93;;;11.63;;
59756;SDS011;45631;51.962;5.974;2023-07-28T09:45:22;17.13;;;10.63;;
59756;SDS011;45631;51.962;5.974;2023-07-28T09:47:55;18.40;;;11.68;;
59756;SDS011;45631;51.962;5.974;2023-07-28T09:50:26;16.27;;;11.07;;
59756;SDS011;45631;51.962;5.974;2023-07-28T09:52:58;15.18;;;10.65;;
59756;SDS011;45631;51.962;5.974;2023-07-28T09:55:30;17.40;;;10.30;;
59756;SDS011;45631;51.962;5.974;2023-07-28T09:58:03;14.82;;;10.35;;
59756;SDS011;45631;51.962;5.974;2023-07-28T10:00:33;13.27;;;9.15;;
59756;SDS011;45631;51.962;5.974;2023-07-28T10:03:03;14.50;;;9.48;;
59756;SDS011;45631;51.962;5.974;2023-07-28T10:05:33;14.73;;;9.65;;
59756;SDS011;45631;51.962;5.974;2023-07-28T10:08:02;12.45;;;9.13;;
59756;SDS011;45631;51.962;5.974;2023-07-28T10:10:32;12.45;;;8.80;;
59756;SDS011;45631;51.962;5.974;2023-07-28T10:13:02;11.57;;;8.30;;
59756;SDS011;45631;51.962;5.974;2023-07-28T10:15:31;10.48;;;8.30;;
59756;SDS011;45631;51.962;5.974;2023-07-28T10:18:00;13.95;;;9.57;;
59756;SDS011;45631;51.962;5.974;2023-07-28T10:20:29;11.60;;;9.02;;
59756;SDS011;45631;51.962;5.974;2023-07-28T10:23:07;12.18;;;8.48;;
59756;SDS011;45631;51.962;5.974;2023-07-28T10:25:41;11.07;;;7.78;;
59756;SDS011;45631;51.962;5.974;2023-07-28T10:28:27;14.73;;;8.50;;
59756;SDS011;45631;51.962;5.974;2023-07-28T10:30:59;11.50;;;8.45;;
59756;SDS011;45631;51.962;5.974;2023-07-28T10:33:29;11.60;;;8.43;;
59756;SDS011;45631;51.962;5.974;2023-07-28T10:35:58;11.45;;;8.73;;
59756;SDS011;45631;51.962;5.974;2023-07-28T10:38:30;11.40;;;8.85;;
59756;SDS011;45631;51.962;5.974;2023-07-28T10:41:08;11.95;;;9.50;;
59756;SDS011;45631;51.962;5.974;2023-07-28T10:43:39;12.63;;;9.23;;
59756;SDS011;45631;51.962;5.974;2023-07-28T10:46:09;12.93;;;9.77;;
59756;SDS011;45631;51.962;5.974;2023-07-28T10:48:41;12.48;;;8.60;;
59756;SDS011;45631;51.962;5.974;2023-07-28T10:51:10;11.97;;;8.83;;
59756;SDS011;45631;51.962;5.974;2023-07-28T10:53:39;11.35;;;8.80;;
59756;SDS011;45631;51.962;5.974;2023-07-28T10:56:07;11.35;;;8.70;;
59756;SDS011;45631;51.962;5.974;2023-07-28T10:58:37;11.73;;;7.82;;
59756;SDS011;45631;51.962;5.974;2023-07-28T11:01:07;11.27;;;7.50;;
59756;SDS011;45631;51.962;5.974;2023-07-28T11:03:36;10.10;;;7.40;;
59756;SDS011;45631;51.962;5.974;2023-07-28T11:06:04;9.43;;;7.22;;
59756;SDS011;45631;51.962;5.974;2023-07-28T11:08:33;10.10;;;7.57;;
59756;SDS011;45631;51.962;5.974;2023-07-28T11:11:04;8.95;;;6.82;;
59756;SDS011;45631;51.962;5.974;2023-07-28T11:13:33;10.60;;;7.93;;
59756;SDS011;45631;51.962;5.974;2023-07-28T11:16:08;9.75;;;7.32;;
59756;SDS011;45631;51.962;5.974;2023-07-28T11:18:38;9.95;;;6.78;;
59756;SDS011;45631;51.962;5.974;2023-07-28T11:21:09;9.43;;;6.43;;
59756;SDS011;45631;51.962;5.974;2023-07-28T11:23:38;8.70;;;6.35;;
59756;SDS011;45631;51.962;5.974;2023-07-28T11:26:08;10.50;;;6.60;;
59756;SDS011;45631;51.962;5.974;2023-07-28T11:28:38;8.82;;;6.25;;
59756;SDS011;45631;51.962;5.974;2023-07-28T11:31:09;9.70;;;6.30;;
59756;SDS011;45631;51.962;5.974;2023-07-28T11:33:37;10.02;;;6.28;;
59756;SDS011;45631;51.962;5.974;2023-07-28T11:36:07;8.60;;;5.85;;
59756;SDS011;45631;51.962;5.974;2023-07-28T11:38:35;8.05;;;4.75;;
59756;SDS011;45631;51.962;5.974;2023-07-28T11:41:04;6.63;;;4.40;;
59756;SDS011;45631;51.962;5.974;2023-07-28T11:43:33;6.63;;;4.63;;
59756;SDS011;45631;51.962;5.974;2023-07-28T11:46:02;8.13;;;5.40;;
59756;SDS011;45631;51.962;5.974;2023-07-28T11:48:32;8.50;;;5.10;;
59756;SDS011;45631;51.962;5.974;2023-07-28T11:51:01;8.32;;;5.30;;
59756;SDS011;45631;51.962;5.974;2023-07-28T11:53:32;7.90;;;5.28;;
59756;SDS011;45631;51.962;5.974;2023-07-28T11:56:01;8.50;;;5.68;;
59756;SDS011;45631;51.962;5.974;2023-07-28T11:58:30;9.23;;;5.53;;
59756;SDS011;45631;51.962;5.974;2023-07-28T12:00:58;8.63;;;5.82;;
59756;SDS011;45631;51.962;5.974;2023-07-28T12:03:36;9.10;;;5.30;;
59756;SDS011;45631;51.962;5.974;2023-07-28T12:06:05;8.52;;;5.28;;
59756;SDS011;45631;51.962;5.974;2023-07-28T12:08:39;7.75;;;5.47;;
59756;SDS011;45631;51.962;5.974;2023-07-28T12:11:11;10.90;;;6.47;;
59756;SDS011;45631;51.962;5.974;2023-07-28T12:13:47;8.32;;;5.05;;
59756;SDS011;45631;51.962;5.974;2023-07-28T12:16:31;8.55;;;5.35;;
59756;SDS011;45631;51.962;5.974;2023-07-28T12:19:07;8.32;;;5.60;;
59756;SDS011;45631;51.962;5.974;2023-07-28T12:21:36;8.20;;;5.35;;
59756;SDS011;45631;51.962;5.974;2023-07-28T12:24:04;8.40;;;5.25;;
59756;SDS011;45631;51.962;5.974;2023-07-28T12:26:34;7.57;;;5.95;;
59756;SDS011;45631;51.962;5.974;2023-07-28T12:29:06;7.68;;;5.50;;
59756;SDS011;45631;51.962;5.974;2023-07-28T12:31:37;9.00;;;6.30;;
59756;SDS011;45631;51.962;5.974;2023-07-28T12:34:11;8.20;;;5.97;;
59756;SDS011;45631;51.962;5.974;2023-07-28T12:36:51;9.65;;;6.82;;
59756;SDS011;45631;51.962;5.974;2023-07-28T12:39:20;8.80;;;6.28;;
59756;SDS011;45631;51.962;5.974;2023-07-28T12:41:53;7.80;;;5.25;;
59756;SDS011;45631;51.962;5.974;2023-07-28T12:44:24;8.63;;;5.25;;
59756;SDS011;45631;51.962;5.974;2023-07-28T12:46:55;7.68;;;5.30;;
59756;SDS011;45631;51.962;5.974;2023-07-28T12:49:25;8.57;;;5.97;;
59756;SDS011;45631;51.962;5.974;2023-07-28T12:51:55;9.70;;;5.67;;
59756;SDS011;45631;51.962;5.974;2023-07-28T12:54:24;9.85;;;6.75;;
59756;SDS011;45631;51.962;5.974;2023-07-28T12:56:53;9.60;;;6.68;;
59756;SDS011;45631;51.962;5.974;2023-07-28T12:59:25;9.10;;;5.97;;
59756;SDS011;45631;51.962;5.974;2023-07-28T13:01:53;9.32;;;5.95;;
59756;SDS011;45631;51.962;5.974;2023-07-28T13:04:22;9.45;;;5.82;;
59756;SDS011;45631;51.962;5.974;2023-07-28T13:06:52;10.32;;;5.88;;
59756;SDS011;45631;51.962;5.974;2023-07-28T13:09:40;7.88;;;5.30;;
59756;SDS011;45631;51.962;5.974;2023-07-28T13:12:09;8.50;;;4.88;;
59756;SDS011;45631;51.962;5.974;2023-07-28T13:14:40;9.32;;;5.68;;
59756;SDS011;45631;51.962;5.974;2023-07-28T13:17:09;7.50;;;4.32;;
59756;SDS011;45631;51.962;5.974;2023-07-28T13:19:38;7.82;;;4.78;;
59756;SDS011;45631;51.962;5.974;2023-07-28T13:22:08;6.60;;;4.40;;
59756;SDS011;45631;51.962;5.974;2023-07-28T13:24:37;7.00;;;4.63;;
59756;SDS011;45631;51.962;5.974;2023-07-28T13:27:06;8.23;;;5.50;;
59756;SDS011;45631;51.962;5.974;2023-07-28T13:29:34;7.80;;;4.93;;
59756;SDS011;45631;51.962;5.974;2023-07-28T13:32:03;7.72;;;4.70;;
59756;SDS011;45631;51.962;5.974;2023-07-28T13:34:32;8.57;;;4.40;;
59756;SDS011;45631;51.962;5.974;2023-07-28T13:37:00;6.57;;;4.18;;
59756;SDS011;45631;51.962;5.974;2023-07-28T13:39:30;8.90;;;4.10;;
59756;SDS011;45631;51.962;5.974;2023-07-28T13:41:58;6.25;;;4.22;;
59756;SDS011;45631;51.962;5.974;2023-07-28T13:44:27;7.20;;;4.35;;
59756;SDS011;45631;51.962;5.974;2023-07-28T13:46:58;7.43;;;4.10;;
59756;SDS011;45631;51.962;5.974;2023-07-28T13:49:27;7.93;;;3.95;;
59756;SDS011;45631;51.962;5.974;2023-07-28T13:51:55;6.68;;;3.45;;
59756;SDS011;45631;51.962;5.974;2023-07-28T13:54:27;6.30;;;3.50;;
59756;SDS011;45631;51.962;5.974;2023-07-28T13:56:57;6.45;;;3.72;;
59756;SDS011;45631;51.962;5.974;2023-07-28T13:59:29;6.38;;;4.25;;
59756;SDS011;45631;51.962;5.974;2023-07-28T14:01:59;8.25;;;4.70;;
59756;SDS011;45631;51.962;5.974;2023-07-28T14:04:28;8.32;;;5.10;;
59756;SDS011;45631;51.962;5.974;2023-07-28T14:06:57;8.25;;;4.63;;
59756;SDS011;45631;51.962;5.974;2023-07-28T14:09:26;8.63;;;4.60;;
59756;SDS011;45631;51.962;5.974;2023-07-28T14:11:55;7.80;;;5.15;;
59756;SDS011;45631;51.962;5.974;2023-07-28T14:14:24;7.72;;;5.07;;
59756;SDS011;45631;51.962;5.974;2023-07-28T14:16:53;8.40;;;4.65;;
59756;SDS011;45631;51.962;5.974;2023-07-28T14:19:22;7.70;;;4.70;;
59756;SDS011;45631;51.962;5.974;2023-07-28T14:21:50;8.38;;;4.45;;
59756;SDS011;45631;51.962;5.974;2023-07-28T14:24:19;7.22;;;4.88;;
59756;SDS011;45631;51.962;5.974;2023-07-28T14:26:47;8.15;;;4.18;;
59756;SDS011;45631;51.962;5.974;2023-07-28T14:29:17;12.40;;;4.80;;
59756;SDS011;45631;51.962;5.974;2023-07-28T14:31:46;7.65;;;4.82;;
59756;SDS011;45631;51.962;5.974;2023-07-28T14:34:14;8.45;;;5.07;;
59756;SDS011;45631;51.962;5.974;2023-07-28T14:36:42;8.85;;;5.35;;
59756;SDS011;45631;51.962;5.974;2023-07-28T14:39:11;7.88;;;4.93;;
59756;SDS011;45631;51.962;5.974;2023-07-28T14:41:39;7.70;;;5.20;;
59756;SDS011;45631;51.962;5.974;2023-07-28T14:44:08;7.45;;;4.70;;